This is the latest recevied weather packets stored in our database for station/object WP3OF-5. If no packets are shown the sender has not sent any weather packets the latest 10 day(s).
| Time | Temp. | Humidity | Pressure | Rain* | Wind** | Luminosity | Snow |
|---|---|---|---|---|---|---|---|
| 1777660194 | 31.11° C | 68% | 1013.6 hPa | 0 mm | - | - | - |
| 1777659891 | 32.22° C | 65% | 1013.5 hPa | 0 mm | - | - | - |
| 1777659587 | 32.22° C | 65% | 1013.6 hPa | 0 mm | - | - | - |
| 1777659285 | 31.67° C | 68% | 1013.9 hPa | 0 mm | - | - | - |
| 1777658982 | 31.11° C | 68% | 1013.9 hPa | 0 mm | - | - | - |
| 1777658679 | 31.67° C | 67% | 1014 hPa | 0 mm | - | - | - |
| 1777658375 | 31.67° C | 68% | 1014.1 hPa | 0 mm | - | - | - |
| 1777658072 | 31.11° C | 68% | 1014.1 hPa | 0 mm | - | - | - |
| 1777657769 | 30.56° C | 70% | 1014.1 hPa | 0 mm | - | - | - |
| 1777657467 | 30.56° C | 69% | 1014.1 hPa | 0 mm | - | - | - |
| 1777657164 | 32.22° C | 64% | 1014.1 hPa | 0 mm | - | - | - |
| 1777656861 | 32.22° C | 63% | 1014.2 hPa | 0 mm | - | - | - |
| 1777656557 | 31.67° C | 60% | 1014.3 hPa | 0 mm | - | - | - |
| 1777656253 | 32.78° C | 57% | 1014.4 hPa | 0 mm | - | - | - |
| 1777655948 | 31.67° C | 60% | 1014.3 hPa | 0 mm | - | - | - |
| 1777655644 | 30.56° C | 60% | 1014.6 hPa | 0 mm | - | - | - |
| 1777655341 | 30.56° C | 63% | 1014.5 hPa | 0 mm | - | - | - |
| 1777655038 | 30.56° C | 60% | 1014.7 hPa | 0 mm | - | - | - |
| 1777654736 | 31.67° C | 57% | 1014.7 hPa | 0 mm | - | - | - |
| 1777654434 | 32.22° C | 56% | 1014.6 hPa | 0 mm | - | - | - |
| 1777654131 | 32.22° C | 55% | 1015 hPa | 0 mm | - | - | - |
| 1777653829 | 32.78° C | 55% | 1014.9 hPa | 0 mm | - | - | - |
| 1777653524 | 33.33° C | 53% | 1014.9 hPa | 0 mm | - | - | - |
| 1777653221 | 32.22° C | 55% | 1015.1 hPa | 0 mm | - | - | - |
| 1777652918 | 32.78° C | 53% | 1015.2 hPa | 0 mm | - | - | - |
* Rain latest hour (hover to see other rain measurements)
** Current wind speed in m/s (hover to see current wind gust speed)